Historyczne dane pomiarowe

Dodano dane terminowe – wersja testowa.

Dane z okresu 1951-2019

Wersja bazy: 1.34 [2019-03-16, lista zmian], aktualizacja planowana na 2019-04-15

Dane meteo z obszaru Polski uzyskane na podstawie danych udostępnionych przez Instytut Meteorologii i Gospodarki Wodnej – Państwowy Instytut Badawczy.

 

Wybierz Datę:    

       

TemperaturaWilgotnośćWiatrCiśnienieOpadyŚniegCzas trwania zjawisk
 Stacja t tx tn tng RH VA  wxwx mslp ppp RRR   cm mm wxwxwxwxwxwxwx
2019-07-25 20.2 27.6 12.3--- 1.3 1.0---- 0.0------------
2019-07-24 18.8 23.1 15.4--- 4.0 1.0---- 0.2------------
2019-07-23 17.5 20.7 15.5--- 6.3 0.3---- 1.9------------
2019-07-22 19.4 26.2 12.7--- 5.0 1.3---- 0.5------------
2019-07-21 20.6 29.6 15.3--- 5.0 1.7---- 15.4------------
2019-07-20 20.0 27.6 14.5--- 5.7 1.7---- 2.0------------
2019-07-19 17.7 27.2 8.7--- 6.7 2.0---- 2.8------------
2019-07-18 16.5 22.9 8.1--- 3.3 0.7---- 0.0------------
2019-07-17 16.4 21.7 8.9--- 4.0 2.0---- 0.0------------
2019-07-16 15.8 23.2 7.3--- 3.0 1.3---- 0.0------------
2019-07-15 16.0 21.9 8.9--- 1.0 2.0---- 0.0------------
2019-07-14 15.8 19.8 13.2--- 5.3 1.0---- 1.9------------
2019-07-13 16.0 20.2 12.6--- 6.0 1.0---- 24.8------------
2019-07-12 15.4 24.1 5.7--- 3.0 1.3---- 0.0------------
2019-07-11 14.2 18.8 8.2--- 3.3 2.7---- 4.2------------
2019-07-10 14.4 20.2 7.7--- 4.3 2.3---- 0.4------------
2019-07-09 13.8 20.2 5.4--- 2.0 1.7---- 0.0------------
2019-07-08 14.8 19.8 8.7--- 4.7 3.3---- 0.0------------
2019-07-07 20.2 26.1 14.8--- 2.3 1.7---- 0.0------------
2019-07-06 20.9 28.1 12.9--- 2.0 1.3---- 0.0------------
2019-07-05 16.7 23.7 6.9--- 5.7 2.0---- 0.0------------
2019-07-04 15.8 23.7 6.2--- 0.7 2.0---- 0.0------------
2019-07-03 17.2 22.9 9.2--- 1.3 3.0---- 0.0------------
2019-07-02 23.3 30.0 18.4--- 4.0 2.0---- 0.0------------
2019-07-01 26.6 35.7 15.2--- 3.7 3.7---- 0.0------------
2019-06-30 23.0 34.2 11.8--- 0.0 1.3---- 0.0------------
2019-06-29 19.6 25.7 12.8--- 0.7 1.0---- 0.0------------
2019-06-28 17.3 22.3 10.9--- 2.3 2.0---- 0.0------------
2019-06-27 25.1 29.4 21.2--- 0.0 3.7---- 0.0------------
2019-06-26 25.8 34.2 16.5--- 0.3 1.3---- 0.0------------
2019-06-25 22.6 29.6 13.5--- 0.3 1.3---- 0.0------------
2019-06-24 20.0 23.3 16.0--- 5.7 1.7---- 0.0------------
2019-06-23 19.4 23.1 16.2--- 8.0 2.0---- 0.0------------
2019-06-22 18.4 23.1 13.7--- 7.0 0.7---- 12.6------------
2019-06-21 20.8 26.1 16.8--- 7.0 1.0---- 0.0------------
2019-06-20 20.8 26.9 15.8--- 4.3 1.7---- 0.2------------
2019-06-19 19.7 27.6 13.2--- 4.7 2.0---- 3.0------------
2019-06-18 16.4 22.0 9.2--- 6.3 1.3---- 0.0------------
2019-06-17 17.6 20.4 15.5--- 4.3 1.3---- 0.7------------
2019-06-16 21.8 29.8 15.3--- 4.0 2.0---- 4.4------------
2019-06-15 24.7 33.4 16.0--- 1.7 1.7---- 0.0------------
2019-06-14 23.8 30.0 15.8--- 2.7 1.0---- 0.0------------
2019-06-13 24.6 32.5 14.6--- 1.0 2.3---- 0.0------------
2019-06-12 23.1 31.0 13.3--- 1.3 2.7---- 0.0------------
2019-06-11 23.4 30.6 13.5--- 1.0 1.7---- 0.0------------
2019-06-10 21.6 30.1 12.0--- 0.7 2.0---- 0.0------------
2019-06-09 20.0 24.2 14.8--- 2.0 1.7---- 0.0------------
2019-06-08 20.6 28.3 13.0--- 2.7 1.7---- 0.0------------
2019-06-07 19.7 24.7 13.6--- 3.7 1.0---- 0.0------------
2019-06-06 18.4 24.7 10.1--- 3.3 1.3---- 0.0------------
2019-06-05 18.5 25.2 12.1--- 2.3 1.7---- 0.0------------
2019-06-04 19.2 26.4 10.7--- 1.3 1.0---- 0.0------------
2019-06-03 18.4 24.9 9.7--- 1.0 2.0---- 0.0------------
2019-06-02 18.2 24.3 11.3--- 2.3 1.3---- 0.0------------
2019-06-01 15.3 22.7 7.7--- 2.3 1.3---- 0.4------------
2019-05-31 13.3 19.6 8.2--- 3.0 0.7---- 0.0------------
2019-05-30 9.6 11.1 8.1--- 8.0 0.7---- 17.7------------
2019-05-29 12.9 17.8 9.7--- 6.3 1.3---- 2.3------------
2019-05-28 17.5 22.4 11.2--- 4.0 2.3---- 0.3------------
2019-05-27 17.0 24.3 8.9--- 5.7 1.3---- 4.5------------
72.4 ms

 

Źródłem pochodzenia danych jest Instytut Meteorologii i Gospodarki Wodnej – Państwowy Instytut Badawczy. Dane Instytutu Meteorologii i Gospodarki Wodnej – Państwowego Instytutu Badawczego zostały przetworzone.

Dane źródłowe można odnaleźć na stronie https://dane.imgw.pl